LIPQ METAR and TAF | Updated Today

LIPQ METAR

Trieste–Friuli Venezia Giulia Airport

Observation time: 19 min. ago

LIPQ 061950Z AUTO 10011KT 070V130 9999 SCT087/// SCT120/// 02/M09 Q1035

Need help? Read our tutorial on how to read METARs or read the parsed version below.

Trieste–Friuli Venezia Giulia Airport (LIPQ) METAR

  • Weather conditions on Mon, 06 Feb 2023 19:50:00 +0000 (19 min. ago):
  • Present conditions: Dry
  • Clouds: Scattered at 2652 meters; scattered at 3658 meters
  • Visibility: Greater than 10 km
  • Wind: 100 degrees at 11 knots
  • Temperature: 2 celsius
  • Dew point: -9 celsius
  • Pressure: 1035 millibars
  • Remarks: None


Useful to know...

LIPQ TAF

Trieste–Friuli Venezia Giulia Airport

TAF LIPQ 061700Z 0618/0718 08006KT 9999 SCT040
Observation time: 3:09 hr. ago
Need help? Read our tutorial on how to read TAFs or read the parsed version below.

Parsed version of TAF for Trieste–Friuli Venezia Giulia Airport (LIPQ)

  • From 06 February at 18:00 UTC, to day 07 of the month at 18:00 UTC
  • Clouds: Scattered at 1219 meters
  • Visibility: Greater than 10 km
  • Wind: 80 degrees at 6